Main page
METAR-TAF:

METAR-TAF

Airports :

Ørland Main Air Station

Ørland, Norway

latitude: 63-42N, longitude: 009-36E, elevation: 0 m

Current weather observation

The report was made 42 minutes ago, at 00:50 UTC
Wind 21 kt from the West/Southwest
Temperature 5°C
Humidity 75%
Pressure 978 hPa
Visibility 10 km or more
Few clouds at a height of 2500 ft

METAR: ENOL 180050Z 25021KT 9999 FEW025 05/01 Q0978

Time: 02:32 (01:32 UTC)

Forecast

Forecast valid from 18 at 00 UTC to 18 at 24 UTC
Wind 15 kt from the West/Southwest
Visibility 10 km or more
Few clouds at a height of 1200 ft, Towering cumulus.
Broken clouds at a height of 2500 ft
light rain showers
Temporary
from 18 at 00 UTC to 18 at 24 UTC
Wind 15 kt from the West/Southwest with gusts up to 25 kt
Visibility: 4000 m
Scattered clouds at a height of 500 ft
Broken clouds at a height of 1200 ft, Cumulonimbus.
rain showers, small hail or snow pellets

TAF: ENOL 1800/1824 25015KT 9999 -SHRA FEW012TCU BKN025 TEMPO 1800/1824 25015G25KT 4000 SHRAGS SCT005 BKN012CB

Weather observations and forecasts of more than 4000 airports (METAR and TAF reports).

The available stations are represented by yellow and red dots on the map.

Hover mouse over dot to see the name of the station.

Then click to see weather observations and forecasts.

To change the map : click on the green buttons with a black cross to zoom in, on the green button with a dash to zoom out, or on the green arrows for adjacent maps.


METAR-TAF: